CheckWX is a tool to help pilots better visualize weather data.  It is not intended as a substitute for an official pre-flight weather briefing.

21:35:30 UTC

KHBR METAR
Hobart Regional Airport
Hobart, Oklahoma, USA
Current

43 mins ago

KHBR 142053Z AUTO 18019G24KT 10SM CLR 41/13 A2975 RMK AO2 PK WND 21027/1955 SLP048 T04110128 58014
Observed
Jul-14 @ 20:53 UTC
Wind
  • 180° at 19 KTS
  • Gusting to 24 KTS
Visibility
10 SM
Flight Rules
VFR
Cloud Levels
  • Clear skies
Temperature
41°C / 106°F
Dewpoint
13°C / 55°F
Humidity
19%
Altimeter
29.75" Hg
Pressure
1007.42 hPa
Previous

2 hours ago

KHBR 141953Z AUTO 20019G24KT 10SM CLR 40/14 A2977 RMK AO2 PK WND 19026/1943 SLP056 T04000144
Observed
Jul-14 @ 19:53 UTC
Wind
  • 200° at 19 KTS
  • Gusting to 24 KTS
Visibility
10 SM
Flight Rules
VFR
Cloud Levels
  • Clear skies
Temperature
40°C / 104°F
Dewpoint
14°C / 57°F
Humidity
21%
Altimeter
29.77" Hg
Pressure
1008.12 hPa
Previous

3 hours ago

KHBR 141853Z AUTO 21017G27KT 10SM CLR 39/14 A2979 RMK AO2 PK WND 20028/1827 SLP061 T03890139
Observed
Jul-14 @ 18:53 UTC
Wind
  • 210° at 17 KTS
  • Gusting to 27 KTS
Visibility
10 SM
Flight Rules
VFR
Cloud Levels
  • Clear skies
Temperature
39°C / 102°F
Dewpoint
14°C / 57°F
Humidity
23%
Altimeter
29.79" Hg
Pressure
1008.82 hPa